Paulinia, Brazil
Current Conditions -  °F | °C
As of 6:00 AM on Thursday 23 Oct 2014 (Local Time) from SBKP Reporting Station
Clear Clear  
Wind Chill: 61°   Ceiling: Unl
Heat Index: 61°   Visibility: 6mi
Dew Point: 55°   Wind: 12mph
Humidity: 82%   Direction: 110°ESE
Pressure: 30.12"   Gusts: NA
Location:  22.75°S, 47.17°W
Report Text: SBKP 230800Z 11010KT CAVOK 16/13 Q1020
Loading
Personal Weather Stations






























Interactive Weather Map
Tropical Storm Tracking
New forecast layout! Learn more

10-Day Weather Forecast

Advertisements
Track Severe Weather on mobile